createdAt,value
2019-01-25T00:03:18.904Z,91.03
2019-01-25T00:08:24.279Z,84.87
2019-01-25T00:13:29.619Z,93.93
2019-01-25T00:18:34.943Z,85.00
2019-01-25T00:23:40.270Z,86.23
2019-01-25T00:28:45.662Z,88.90
2019-01-25T00:33:51.025Z,80.43
2019-01-25T00:38:56.392Z,83.07
2019-01-25T00:44:01.731Z,79.00
2019-01-25T00:49:07.079Z,75.47
2019-01-25T00:54:12.398Z,86.00
2019-01-25T00:59:17.712Z,79.17
2019-01-25T01:04:23.080Z,90.43
2019-01-25T01:09:28.434Z,89.30
2019-01-25T01:14:33.819Z,86.77
2019-01-25T01:19:39.183Z,81.33
2019-01-25T01:24:44.569Z,81.63
2019-01-25T01:29:49.920Z,84.33
2019-01-25T01:34:55.345Z,77.73
2019-01-25T01:40:00.654Z,81.07
2019-01-25T01:45:06.343Z,82.13
2019-01-25T01:50:13.992Z,80.93
2019-01-25T01:55:19.321Z,79.17
2019-01-25T02:00:28.219Z,79.43
2019-01-25T02:05:33.575Z,84.77
2019-01-25T02:10:38.915Z,81.37
2019-01-25T02:15:44.242Z,87.10
2019-01-25T02:20:49.647Z,75.03
2019-01-25T02:25:55.504Z,82.47
2019-01-25T02:31:01.131Z,77.47
2019-01-25T02:36:06.736Z,84.33
2019-01-25T02:41:12.288Z,82.63
2019-01-25T02:46:17.822Z,83.17
2019-01-25T02:51:23.399Z,91.70
2019-01-25T02:56:28.934Z,85.73
2019-01-25T03:01:34.321Z,88.03
2019-01-25T03:06:39.733Z,87.63
2019-01-25T03:11:45.086Z,98.03
2019-01-25T03:16:50.393Z,90.10
2019-01-25T03:21:55.737Z,91.27
2019-01-25T03:27:01.061Z,96.87
2019-01-25T03:32:06.425Z,93.63
2019-01-25T03:37:11.755Z,93.90
2019-01-25T03:42:17.061Z,94.43
2019-01-25T03:47:22.374Z,100.87
2019-01-25T03:52:27.685Z,94.07
2019-01-25T03:57:33.048Z,85.80
2019-01-25T04:02:38.401Z,93.67
2019-01-25T04:07:43.753Z,99.17
2019-01-25T04:12:49.146Z,92.90
2019-01-25T04:17:54.562Z,100.10
2019-01-25T04:22:59.886Z,98.73
2019-01-25T04:28:05.270Z,102.87
2019-01-25T04:33:10.612Z,105.43
2019-01-25T04:38:15.941Z,92.53
2019-01-25T04:43:21.296Z,101.67
2019-01-25T04:48:26.709Z,99.50
2019-01-25T04:53:33.414Z,105.97
2019-01-25T04:58:38.743Z,102.47
2019-01-25T05:03:44.791Z,101.13
2019-01-25T05:08:50.135Z,101.60
2019-01-25T05:13:55.454Z,93.67
2019-01-25T05:19:00.751Z,100.17
2019-01-25T05:24:12.448Z,107.83
2019-01-25T05:29:19.429Z,107.70
2019-01-25T05:34:24.821Z,105.67
2019-01-25T05:39:30.120Z,97.80
2019-01-25T05:44:35.472Z,105.33
2019-01-25T05:49:40.797Z,100.40
2019-01-25T05:54:46.112Z,100.57
2019-01-25T05:59:51.483Z,98.30
2019-01-25T06:04:57.145Z,112.40
2019-01-25T06:10:02.540Z,106.07
2019-01-25T06:15:08.350Z,96.77
2019-01-25T06:20:13.809Z,104.10
2019-01-25T06:25:19.140Z,103.83
2019-01-25T06:30:24.467Z,102.77
2019-01-25T06:35:29.817Z,101.57
2019-01-25T06:40:35.293Z,104.67
2019-01-25T06:45:40.724Z,99.17
2019-01-25T06:50:46.030Z,100.13
2019-01-25T06:55:51.414Z,106.73
2019-01-25T07:01:13.316Z,96.23
2019-01-25T07:06:18.885Z,101.23
2019-01-25T07:11:24.265Z,97.70
2019-01-25T07:16:29.640Z,108.50
2019-01-25T07:21:34.984Z,108.87
2019-01-25T07:26:40.325Z,102.70
2019-01-25T07:31:46.393Z,107.87
2019-01-25T07:36:52.116Z,106.80
2019-01-25T07:41:59.613Z,107.70
2019-01-25T07:47:04.756Z,106.03
2019-01-25T07:52:10.165Z,113.27
2019-01-25T07:57:15.593Z,111.37
2019-01-25T08:02:20.946Z,116.03
2019-01-25T08:07:26.387Z,110.97
2019-01-25T08:12:31.982Z,107.33
2019-01-25T08:17:37.333Z,106.80
2019-01-25T08:22:42.911Z,106.10
2019-01-25T08:27:48.833Z,106.83
2019-01-25T08:32:54.342Z,106.20
2019-01-25T08:37:59.721Z,105.07
2019-01-25T08:43:05.089Z,95.33
2019-01-25T08:48:10.575Z,102.77
2019-01-25T08:53:15.962Z,103.43
2019-01-25T08:58:21.317Z,102.33
2019-01-25T09:03:26.663Z,94.67
2019-01-25T09:08:32.013Z,105.87
2019-01-25T09:13:37.424Z,112.43
2019-01-25T09:18:42.740Z,102.57
2019-01-25T09:23:48.080Z,115.73
2019-01-25T09:28:53.448Z,107.27
2019-01-25T09:33:58.798Z,101.43
2019-01-25T09:39:05.764Z,108.70
2019-01-25T09:44:11.140Z,103.00
2019-01-25T09:49:16.563Z,94.83
2019-01-25T09:54:21.875Z,94.47
2019-01-25T09:59:27.312Z,104.40
2019-01-25T10:04:32.778Z,114.33
2019-01-25T10:09:38.117Z,104.93
2019-01-25T10:14:43.465Z,96.10
2019-01-25T10:19:50.585Z,89.00
2019-01-25T10:24:55.891Z,88.87
2019-01-25T10:30:01.291Z,88.23
2019-01-25T10:35:08.451Z,88.10
2019-01-25T10:40:16.674Z,93.67
2019-01-25T10:45:34.195Z,86.07
2019-01-25T10:50:39.525Z,89.13
2019-01-25T10:55:44.942Z,87.90
2019-01-25T11:00:51.339Z,83.53
2019-01-25T11:05:56.867Z,72.60
2019-01-25T11:11:02.425Z,54.30
2019-01-25T11:16:11.972Z,46.37
2019-01-25T11:21:15.126Z,33.37
2019-01-25T11:26:20.424Z,26.47
2019-01-25T11:31:25.774Z,25.80
2019-01-25T11:36:31.115Z,20.50
2019-01-25T11:41:36.465Z,21.00
2019-01-25T11:46:41.802Z,23.67
2019-01-25T11:51:47.277Z,24.60
2019-01-25T11:56:52.676Z,18.47
2019-01-25T12:01:58.048Z,19.23
2019-01-25T12:07:03.435Z,19.20
2019-01-25T12:12:08.766Z,18.77
2019-01-25T12:17:14.162Z,18.13
2019-01-25T12:22:19.800Z,21.60
2019-01-25T12:27:25.227Z,19.50
2019-01-25T12:32:30.601Z,23.53
2019-01-25T12:37:35.889Z,22.00
2019-01-25T12:42:41.189Z,19.93
2019-01-25T12:47:46.521Z,20.13
2019-01-25T12:52:51.921Z,18.77
2019-01-25T12:57:57.241Z,19.53
2019-01-25T13:03:02.600Z,17.00
2019-01-25T13:08:07.968Z,18.00
2019-01-25T13:13:13.356Z,22.57
2019-01-25T13:18:18.756Z,17.83
2019-01-25T13:23:24.433Z,17.33
2019-01-25T13:28:29.841Z,19.10
2019-01-25T13:33:35.267Z,14.83
2019-01-25T13:38:41.106Z,15.07
2019-01-25T13:43:46.445Z,14.83
2019-01-25T13:48:51.767Z,16.97
2019-01-25T13:53:57.116Z,13.03
2019-01-25T13:59:02.718Z,14.70
2019-01-25T14:04:08.060Z,15.13
2019-01-25T14:09:13.391Z,15.30
2019-01-25T14:14:18.722Z,18.50
2019-01-25T14:19:24.198Z,14.17
2019-01-25T14:24:29.624Z,14.57
2019-01-25T14:29:35.016Z,14.63
2019-01-25T14:34:40.372Z,11.30
2019-01-25T14:39:45.809Z,12.50
2019-01-25T14:44:51.213Z,12.17
2019-01-25T14:49:56.592Z,10.50
2019-01-25T14:55:01.929Z,9.43
2019-01-25T15:00:07.896Z,10.73
2019-01-25T15:05:16.123Z,7.87
2019-01-25T15:10:23.968Z,9.27
2019-01-25T15:15:29.304Z,10.37
2019-01-25T15:20:34.609Z,10.63
2019-01-25T15:25:39.941Z,11.43
2019-01-25T15:30:45.395Z,9.87
2019-01-25T15:35:50.695Z,11.37
2019-01-25T15:40:55.990Z,10.13
2019-01-25T15:46:01.299Z,10.23
2019-01-25T15:51:06.717Z,11.03
2019-01-25T15:56:12.134Z,11.17
2019-01-25T16:01:17.737Z,11.80
2019-01-25T16:06:23.072Z,13.43
2019-01-25T16:11:29.135Z,14.30
2019-01-25T16:16:34.492Z,13.50
2019-01-25T16:21:39.801Z,13.33
2019-01-25T16:26:45.738Z,11.63
2019-01-25T16:31:51.180Z,15.53
2019-01-25T16:36:57.133Z,16.23
2019-01-25T16:42:02.662Z,16.97
2019-01-25T16:47:08.118Z,23.80
2019-01-25T16:52:14.024Z,19.10
2019-01-25T16:57:19.462Z,19.27
2019-01-25T17:02:25.063Z,21.03
2019-01-25T17:07:30.415Z,19.07
2019-01-25T17:12:35.723Z,22.53
2019-01-25T17:17:41.075Z,18.43
2019-01-25T17:22:46.384Z,21.10
2019-01-25T17:27:51.717Z,21.87
2019-01-25T17:32:58.976Z,21.27
2019-01-25T17:38:05.537Z,19.67
2019-01-25T17:43:10.875Z,22.37
2019-01-25T17:48:16.166Z,22.23
2019-01-25T17:53:21.571Z,24.37
2019-01-25T17:58:26.899Z,27.07
2019-01-25T18:03:33.110Z,28.67
2019-01-25T18:08:38.608Z,29.83
2019-01-25T18:13:44.477Z,26.43
2019-01-25T18:18:49.966Z,27.57
2019-01-25T18:23:55.296Z,29.50
2019-01-25T18:29:12.298Z,27.40
2019-01-25T18:34:17.797Z,33.07
2019-01-25T18:39:23.431Z,25.80
2019-01-25T18:44:28.863Z,29.47
2019-01-25T18:49:34.221Z,29.03
2019-01-25T18:54:39.571Z,28.40
2019-01-25T18:59:44.940Z,33.73
2019-01-25T19:04:50.296Z,31.93
2019-01-25T19:09:55.611Z,32.27
2019-01-25T19:15:04.557Z,30.87
2019-01-25T19:20:10.951Z,30.73
2019-01-25T19:25:16.336Z,26.27
2019-01-25T19:30:34.553Z,25.97
2019-01-25T19:35:39.869Z,31.07
2019-01-25T19:40:45.264Z,26.73
2019-01-25T19:45:50.589Z,31.07
2019-01-25T19:50:55.947Z,32.47
2019-01-25T19:56:01.311Z,24.93
2019-01-25T20:01:06.773Z,29.13
2019-01-25T20:06:12.102Z,35.27
2019-01-25T20:11:17.454Z,28.23
2019-01-25T20:16:22.835Z,32.53
2019-01-25T20:21:28.159Z,33.27
2019-01-25T20:26:33.568Z,33.93
2019-01-25T20:31:38.870Z,29.63
2019-01-25T20:36:44.202Z,28.23
2019-01-25T20:41:49.596Z,27.40
2019-01-25T20:46:54.935Z,32.03
2019-01-25T20:52:00.453Z,25.77
2019-01-25T20:57:05.781Z,24.17
2019-01-25T21:02:11.128Z,27.63
2019-01-25T21:07:16.470Z,26.87
2019-01-25T21:12:21.913Z,32.70
2019-01-25T21:17:27.204Z,26.40
2019-01-25T21:22:32.591Z,26.83
2019-01-25T21:27:37.924Z,24.63
2019-01-25T21:32:43.222Z,30.67
2019-01-25T21:37:48.505Z,26.47
2019-01-25T21:42:53.849Z,25.10
2019-01-25T21:47:59.224Z,24.03
2019-01-25T21:53:04.564Z,24.27
2019-01-25T21:58:09.940Z,22.60
2019-01-25T22:03:15.269Z,23.20
2019-01-25T22:08:20.666Z,24.57
2019-01-25T22:13:26.104Z,21.17
2019-01-25T22:18:31.501Z,23.27
2019-01-25T22:23:36.850Z,20.10
2019-01-25T22:28:42.141Z,20.53
2019-01-25T22:33:47.495Z,19.17
2019-01-25T22:38:52.810Z,18.10
2019-01-25T22:43:58.186Z,18.67
2019-01-25T22:49:03.561Z,14.47
2019-01-25T22:54:08.901Z,19.43
2019-01-25T22:59:14.429Z,16.63
2019-01-25T23:05:07.675Z,15.07
2019-01-25T23:10:21.371Z,15.60
2019-01-25T23:15:26.775Z,14.00
2019-01-25T23:20:32.126Z,13.20
2019-01-25T23:25:37.504Z,14.43
2019-01-25T23:30:42.802Z,11.23
2019-01-25T23:35:48.140Z,10.73
2019-01-25T23:40:53.543Z,10.10
2019-01-25T23:45:58.829Z,7.73
2019-01-25T23:51:04.161Z,10.97
2019-01-25T23:56:09.468Z,8.57
